createdAt,value
2018-12-30T00:00:49.384Z,1.40
2018-12-30T00:03:17.785Z,1.40
2018-12-30T00:05:46.386Z,1.40
2018-12-30T00:08:15.072Z,1.50
2018-12-30T00:10:43.692Z,1.50
2018-12-30T00:13:12.096Z,1.50
2018-12-30T00:15:40.580Z,1.50
2018-12-30T00:18:09.000Z,1.50
2018-12-30T00:23:07.432Z,1.50
2018-12-30T00:25:36.396Z,1.50
2018-12-30T00:30:32.952Z,1.50
2018-12-30T00:33:01.352Z,1.50
2018-12-30T00:35:29.796Z,1.50
2018-12-30T00:37:58.212Z,1.60
2018-12-30T00:42:54.766Z,1.60
2018-12-30T00:45:23.327Z,1.60
2018-12-30T00:47:51.817Z,1.60
2018-12-30T00:52:48.400Z,1.60
2018-12-30T00:57:45.124Z,1.60
2018-12-30T01:02:41.603Z,1.70
2018-12-30T01:05:10.025Z,1.70
2018-12-30T01:07:38.906Z,1.70
2018-12-30T01:12:37.012Z,1.70
2018-12-30T01:15:05.940Z,1.70
2018-12-30T01:17:34.437Z,1.70
2018-12-30T01:20:02.984Z,1.70
2018-12-30T01:24:59.745Z,1.80
2018-12-30T01:27:28.144Z,1.80
2018-12-30T01:29:56.624Z,1.80
2018-12-30T01:32:25.026Z,1.80
2018-12-30T01:34:53.444Z,1.90
2018-12-30T01:37:21.840Z,1.90
2018-12-30T01:39:50.245Z,1.90
2018-12-30T01:42:18.663Z,1.90
2018-12-30T01:44:47.064Z,1.90
2018-12-30T01:47:15.462Z,1.90
2018-12-30T01:49:44.364Z,1.90
2018-12-30T01:52:12.825Z,1.90
2018-12-30T01:54:41.240Z,2.00
2018-12-30T01:57:09.650Z,1.90
2018-12-30T01:59:38.048Z,2.00
2018-12-30T02:02:06.435Z,2.00
2018-12-30T02:04:34.868Z,2.00
2018-12-30T02:07:03.284Z,2.00
2018-12-30T02:09:31.691Z,2.00
2018-12-30T02:12:00.080Z,2.00
2018-12-30T02:14:28.484Z,2.00
2018-12-30T02:16:56.900Z,2.00
2018-12-30T02:19:25.452Z,2.00
2018-12-30T02:24:21.927Z,2.00
2018-12-30T02:26:50.328Z,2.00
2018-12-30T02:29:19.101Z,2.00
2018-12-30T02:31:47.513Z,2.00
2018-12-30T02:34:15.976Z,2.00
2018-12-30T02:36:44.381Z,2.00
2018-12-30T02:39:12.768Z,2.00
2018-12-30T02:41:41.562Z,2.00
2018-12-30T02:44:10.005Z,2.00
2018-12-30T02:46:38.431Z,2.10
2018-12-30T02:49:06.957Z,2.10
2018-12-30T02:51:35.363Z,2.10
2018-12-30T02:54:04.337Z,2.00
2018-12-30T02:56:32.749Z,2.10
2018-12-30T02:59:01.216Z,2.10
2018-12-30T03:01:29.617Z,2.10
2018-12-30T03:03:58.025Z,2.10
2018-12-30T03:06:26.713Z,2.10
2018-12-30T03:08:55.143Z,2.20
2018-12-30T03:11:23.528Z,2.20
2018-12-30T03:16:20.020Z,2.20
2018-12-30T03:18:48.913Z,2.20
2018-12-30T03:21:17.309Z,2.20
2018-12-30T03:23:45.717Z,2.20
2018-12-30T03:28:42.192Z,2.20
2018-12-30T03:31:10.599Z,2.20
2018-12-30T03:33:39.000Z,2.20
2018-12-30T03:36:07.393Z,2.30
2018-12-30T03:38:35.812Z,2.30
2018-12-30T03:41:04.686Z,2.30
2018-12-30T03:43:33.090Z,2.30
2018-12-30T03:46:01.518Z,2.30
2018-12-30T03:48:30.021Z,2.30
2018-12-30T03:50:58.433Z,2.30
2018-12-30T03:53:26.848Z,2.30
2018-12-30T03:55:55.363Z,2.30
2018-12-30T03:58:23.767Z,2.30
2018-12-30T04:00:52.169Z,2.30
2018-12-30T04:03:20.580Z,2.30
2018-12-30T04:05:48.977Z,2.30
2018-12-30T04:08:17.382Z,2.30
2018-12-30T04:10:45.786Z,2.30
2018-12-30T04:13:14.204Z,2.30
2018-12-30T04:15:42.594Z,2.30
2018-12-30T04:18:11.001Z,2.30
2018-12-30T04:20:39.399Z,2.30
2018-12-30T04:28:04.234Z,2.40
2018-12-30T04:30:51.980Z,2.40
2018-12-30T04:33:20.393Z,2.40
2018-12-30T04:35:48.788Z,2.40
2018-12-30T04:38:17.242Z,2.40
2018-12-30T04:40:45.705Z,2.40
2018-12-30T04:43:14.194Z,2.40
2018-12-30T04:45:42.612Z,2.30
2018-12-30T04:50:39.968Z,2.30
2018-12-30T04:53:08.653Z,2.30
2018-12-30T04:55:37.088Z,2.30
2018-12-30T04:58:05.472Z,2.30
2018-12-30T05:00:33.900Z,2.30
2018-12-30T05:03:02.433Z,2.30
2018-12-30T05:05:30.863Z,2.40
2018-12-30T05:07:59.262Z,2.40
2018-12-30T05:10:27.672Z,2.40
2018-12-30T05:12:56.072Z,2.40
2018-12-30T05:15:24.486Z,2.40
2018-12-30T05:17:52.891Z,2.40
2018-12-30T05:22:49.362Z,2.40
2018-12-30T05:25:17.760Z,2.40
2018-12-30T05:27:46.160Z,2.40
2018-12-30T05:30:14.566Z,2.40
2018-12-30T05:32:42.983Z,2.40
2018-12-30T05:35:11.387Z,2.40
2018-12-30T05:37:39.945Z,2.40
2018-12-30T05:40:08.386Z,2.50
2018-12-30T05:42:36.818Z,2.50
2018-12-30T05:45:07.067Z,2.50
2018-12-30T05:47:35.452Z,2.50
2018-12-30T05:50:05.769Z,2.40
2018-12-30T05:52:41.615Z,2.40
2018-12-30T05:55:04.668Z,2.50
2018-12-30T05:57:33.072Z,2.50
2018-12-30T06:00:01.488Z,2.50
2018-12-30T06:02:29.888Z,2.50
2018-12-30T06:04:58.288Z,2.50
2018-12-30T06:09:54.764Z,2.50
2018-12-30T06:12:23.176Z,2.50
2018-12-30T06:14:51.572Z,2.50
2018-12-30T06:17:19.985Z,2.50
2018-12-30T06:19:48.384Z,2.50
2018-12-30T06:24:44.864Z,2.50
2018-12-30T06:27:13.268Z,2.50
2018-12-30T06:29:41.664Z,2.50
2018-12-30T06:32:10.089Z,2.50
2018-12-30T06:34:38.493Z,2.50
2018-12-30T06:37:06.903Z,2.50
2018-12-30T06:39:35.360Z,2.50
2018-12-30T06:42:03.769Z,2.50
2018-12-30T06:44:32.164Z,2.50
2018-12-30T06:47:00.592Z,2.60
2018-12-30T06:49:28.984Z,2.50
2018-12-30T06:51:57.561Z,2.50
2018-12-30T06:54:25.965Z,2.50
2018-12-30T06:57:13.718Z,2.50
2018-12-30T06:59:42.124Z,2.60
2018-12-30T07:04:38.621Z,2.60
2018-12-30T07:07:07.021Z,2.50
2018-12-30T07:09:35.429Z,2.50
2018-12-30T07:12:03.836Z,2.50
2018-12-30T07:14:32.228Z,2.50
2018-12-30T07:17:00.635Z,2.50
2018-12-30T07:21:57.133Z,2.50
2018-12-30T07:24:25.544Z,2.50
2018-12-30T07:26:53.973Z,2.60
2018-12-30T07:29:22.367Z,2.60
2018-12-30T07:31:50.772Z,2.60
2018-12-30T07:34:19.178Z,2.60
2018-12-30T07:36:47.770Z,2.60
2018-12-30T07:39:16.174Z,2.50
2018-12-30T07:41:44.586Z,2.50
2018-12-30T07:44:12.985Z,2.60
2018-12-30T07:46:41.566Z,2.60
2018-12-30T07:49:10.040Z,2.60
2018-12-30T07:51:38.437Z,2.50
2018-12-30T07:54:06.836Z,2.50
2018-12-30T07:56:35.235Z,2.50
2018-12-30T07:59:03.652Z,2.50
2018-12-30T08:01:32.125Z,2.60
2018-12-30T08:04:00.529Z,2.50
2018-12-30T08:06:28.924Z,2.60
2018-12-30T08:08:57.341Z,2.60
2018-12-30T08:11:25.753Z,2.60
2018-12-30T08:13:54.160Z,2.60
2018-12-30T08:16:22.572Z,2.60
2018-12-30T08:18:50.995Z,2.60
2018-12-30T08:23:47.464Z,2.60
2018-12-30T08:28:45.421Z,2.60
2018-12-30T08:31:13.948Z,2.70
2018-12-30T08:33:42.349Z,2.70
2018-12-30T08:36:10.748Z,2.70
2018-12-30T08:38:39.161Z,2.70
2018-12-30T08:41:07.549Z,2.70
2018-12-30T08:43:35.973Z,2.70
2018-12-30T08:46:04.412Z,2.80
2018-12-30T08:51:00.957Z,2.80
2018-12-30T08:55:58.109Z,2.90
2018-12-30T09:00:54.601Z,3.00
2018-12-30T09:03:23.012Z,3.00
2018-12-30T09:05:51.409Z,3.10
2018-12-30T09:08:19.816Z,3.10
2018-12-30T09:10:48.289Z,3.20
2018-12-30T09:13:16.686Z,3.30
2018-12-30T09:15:45.096Z,3.30
2018-12-30T09:18:13.499Z,3.40
2018-12-30T09:20:41.908Z,3.40
2018-12-30T09:23:10.315Z,3.40
2018-12-30T09:25:38.992Z,3.40
2018-12-30T09:28:07.404Z,3.30
2018-12-30T09:30:35.862Z,3.30
2018-12-30T09:33:04.285Z,3.30
2018-12-30T09:35:32.689Z,3.30
2018-12-30T09:38:01.086Z,3.40
2018-12-30T09:40:29.495Z,3.40
2018-12-30T09:42:57.908Z,3.40
2018-12-30T09:45:26.330Z,3.40
2018-12-30T09:47:54.736Z,3.40
2018-12-30T09:50:23.420Z,3.40
2018-12-30T09:52:51.820Z,3.40
2018-12-30T09:55:20.235Z,3.40
2018-12-30T09:57:48.644Z,3.40
2018-12-30T10:00:17.062Z,3.30
2018-12-30T10:10:09.747Z,3.40
2018-12-30T10:12:38.148Z,3.30
2018-12-30T10:17:36.373Z,3.30
2018-12-30T10:20:07.440Z,3.30
2018-12-30T10:22:35.948Z,3.30
2018-12-30T10:25:04.903Z,3.30
2018-12-30T10:30:01.388Z,3.30
2018-12-30T10:32:29.787Z,3.30
2018-12-30T10:34:58.264Z,3.30
2018-12-30T10:37:26.664Z,3.30
2018-12-30T10:44:52.925Z,3.30
2018-12-30T10:47:21.349Z,3.40
2018-12-30T10:49:49.861Z,3.40
2018-12-30T10:52:18.270Z,3.40
2018-12-30T10:54:46.740Z,3.50
2018-12-30T10:57:15.172Z,3.50
2018-12-30T10:59:43.576Z,3.50
2018-12-30T11:02:11.984Z,3.50
2018-12-30T11:04:40.437Z,3.50
2018-12-30T11:07:08.861Z,3.50
2018-12-30T11:09:37.268Z,3.50
2018-12-30T11:12:05.810Z,3.50
2018-12-30T11:14:34.265Z,3.50
2018-12-30T11:17:02.664Z,3.50
2018-12-30T11:19:31.060Z,3.50
2018-12-30T11:21:59.469Z,3.50
2018-12-30T11:24:27.877Z,3.50
2018-12-30T11:26:56.408Z,3.50
2018-12-30T11:29:24.880Z,3.60
2018-12-30T11:31:53.297Z,3.60
2018-12-30T11:34:21.692Z,3.60
2018-12-30T11:36:50.100Z,3.70
2018-12-30T11:39:18.492Z,3.70
2018-12-30T11:42:06.232Z,3.70
2018-12-30T11:44:34.677Z,3.80
2018-12-30T11:49:31.264Z,3.80
2018-12-30T11:51:59.678Z,3.70
2018-12-30T11:59:24.253Z,3.70
2018-12-30T12:01:52.658Z,3.70
2018-12-30T12:04:21.057Z,3.70
2018-12-30T12:06:49.459Z,3.60
2018-12-30T12:09:17.852Z,3.70
2018-12-30T12:11:46.260Z,3.70
2018-12-30T12:14:14.677Z,3.70
2018-12-30T12:16:43.090Z,3.70
2018-12-30T12:19:11.484Z,3.80
2018-12-30T12:24:08.008Z,3.90
2018-12-30T12:26:36.404Z,3.90
2018-12-30T12:29:04.812Z,4.00
2018-12-30T12:31:52.555Z,4.00
2018-12-30T12:34:20.964Z,3.90
2018-12-30T12:36:49.360Z,3.80
2018-12-30T12:39:17.764Z,3.80
2018-12-30T12:41:46.165Z,3.80
2018-12-30T12:44:14.584Z,3.80
2018-12-30T12:46:42.980Z,3.80
2018-12-30T12:51:39.452Z,3.80
2018-12-30T12:56:35.930Z,3.90
2018-12-30T13:01:32.417Z,3.90
2018-12-30T13:04:00.828Z,4.00
2018-12-30T13:06:29.229Z,4.00
2018-12-30T13:08:57.640Z,4.00
2018-12-30T13:11:26.246Z,4.00
2018-12-30T13:13:54.657Z,4.00
2018-12-30T13:16:23.049Z,4.00
2018-12-30T13:18:51.472Z,3.90
2018-12-30T13:21:19.864Z,4.00
2018-12-30T13:23:48.274Z,3.90
2018-12-30T13:26:16.681Z,3.90
2018-12-30T13:28:45.089Z,3.90
2018-12-30T13:31:13.476Z,4.00
2018-12-30T13:33:41.885Z,4.00
2018-12-30T13:38:38.744Z,4.00
2018-12-30T13:41:07.177Z,4.00
2018-12-30T13:43:35.574Z,4.00
2018-12-30T13:46:03.972Z,4.00
2018-12-30T13:48:32.368Z,4.00
2018-12-30T13:51:00.792Z,4.00
2018-12-30T13:53:29.190Z,4.00
2018-12-30T13:55:57.600Z,4.00
2018-12-30T13:58:26.006Z,4.00
2018-12-30T14:00:54.424Z,4.00
2018-12-30T14:03:22.820Z,4.00
2018-12-30T14:05:51.226Z,4.00
2018-12-30T14:08:19.616Z,3.90
2018-12-30T14:10:48.025Z,3.90
2018-12-30T14:15:50.881Z,3.90
2018-12-30T14:18:14.741Z,3.90
2018-12-30T14:20:43.145Z,3.90
2018-12-30T14:23:11.536Z,3.90
2018-12-30T14:25:39.957Z,3.90
2018-12-30T14:28:08.353Z,3.90
2018-12-30T14:30:36.868Z,3.80
2018-12-30T14:33:05.277Z,3.80
2018-12-30T14:38:01.750Z,3.70
2018-12-30T14:42:58.602Z,3.70
2018-12-30T14:45:27.004Z,3.70
2018-12-30T14:47:55.428Z,3.70
2018-12-30T14:50:23.925Z,3.70
2018-12-30T14:52:52.329Z,3.70
2018-12-30T14:55:20.741Z,3.70
2018-12-30T14:57:49.141Z,3.70
2018-12-30T15:00:17.620Z,3.70
2018-12-30T15:02:46.023Z,3.70
2018-12-30T15:07:42.488Z,3.70
2018-12-30T15:10:10.905Z,3.70
2018-12-30T15:12:39.347Z,3.70
2018-12-30T15:17:35.838Z,3.70
2018-12-30T15:20:06.468Z,3.70
2018-12-30T15:22:34.879Z,3.70
2018-12-30T15:27:31.357Z,3.70
2018-12-30T15:29:59.850Z,3.60
2018-12-30T15:32:28.264Z,3.70
2018-12-30T15:34:56.659Z,3.60
2018-12-30T15:39:53.139Z,3.60
2018-12-30T15:44:49.622Z,3.60
2018-12-30T15:47:18.033Z,3.60
2018-12-30T15:52:14.516Z,3.60
2018-12-30T15:57:11.000Z,3.50
2018-12-30T15:59:39.401Z,3.50
2018-12-30T16:02:07.809Z,3.50
2018-12-30T16:04:36.220Z,3.50
2018-12-30T16:07:04.637Z,3.40
2018-12-30T16:09:33.032Z,3.30
2018-12-30T16:12:01.448Z,3.40
2018-12-30T16:14:29.836Z,3.40
2018-12-30T16:16:58.246Z,3.40
2018-12-30T16:19:26.636Z,3.40
2018-12-30T16:21:56.493Z,3.40
2018-12-30T16:24:25.128Z,3.40
2018-12-30T16:26:53.537Z,3.30
2018-12-30T16:29:21.937Z,3.30
2018-12-30T16:31:50.384Z,3.30
2018-12-30T16:34:18.799Z,3.30
2018-12-30T16:36:47.207Z,3.30
2018-12-30T16:39:15.609Z,3.30
2018-12-30T16:41:44.012Z,3.20
2018-12-30T16:44:12.436Z,3.20
2018-12-30T16:46:40.829Z,3.20
2018-12-30T16:49:09.229Z,3.20
2018-12-30T16:51:37.635Z,3.20
2018-12-30T16:56:34.116Z,3.20
2018-12-30T17:01:30.609Z,3.20
2018-12-30T17:03:59.012Z,3.10
2018-12-30T17:06:33.939Z,3.20
2018-12-30T17:08:57.558Z,3.20
2018-12-30T17:11:25.980Z,3.20
2018-12-30T17:13:54.393Z,3.20
2018-12-30T17:18:55.903Z,3.10
2018-12-30T17:21:20.992Z,3.10
2018-12-30T17:23:49.400Z,3.10
2018-12-30T17:26:17.805Z,3.10
2018-12-30T17:31:14.280Z,3.10
2018-12-30T17:33:42.689Z,3.10
2018-12-30T17:36:11.088Z,3.10
2018-12-30T17:38:39.797Z,3.10
2018-12-30T17:41:08.192Z,3.10
2018-12-30T17:43:36.588Z,3.10
2018-12-30T17:46:05.008Z,3.10
2018-12-30T17:51:01.572Z,3.10
2018-12-30T17:53:30.188Z,3.10
2018-12-30T17:58:26.672Z,3.10
2018-12-30T18:00:55.088Z,3.10
2018-12-30T18:03:23.500Z,3.10
2018-12-30T18:05:51.907Z,3.10
2018-12-30T18:08:39.665Z,3.10
2018-12-30T18:11:08.071Z,3.10
2018-12-30T18:13:36.491Z,3.10
2018-12-30T18:16:04.905Z,3.10
2018-12-30T18:18:33.301Z,3.10
2018-12-30T18:21:01.716Z,3.10
2018-12-30T18:23:30.112Z,3.20
2018-12-30T18:25:58.945Z,3.20
2018-12-30T18:30:55.483Z,3.20
2018-12-30T18:35:51.951Z,3.20
2018-12-30T18:40:48.432Z,3.20
2018-12-30T18:45:44.960Z,3.30
2018-12-30T18:48:13.361Z,3.30
2018-12-30T18:50:41.768Z,3.30
2018-12-30T18:53:10.160Z,3.30
2018-12-30T18:55:38.565Z,3.20
2018-12-30T18:58:06.957Z,3.30
2018-12-30T19:00:35.370Z,3.20
2018-12-30T19:03:03.777Z,3.20
2018-12-30T19:05:32.168Z,3.20
2018-12-30T19:08:00.577Z,3.20
2018-12-30T19:10:28.976Z,3.20
2018-12-30T19:12:57.388Z,3.20
2018-12-30T19:15:25.972Z,3.20
2018-12-30T19:17:54.389Z,3.20
2018-12-30T19:20:22.796Z,3.20
2018-12-30T19:22:51.203Z,3.20
2018-12-30T19:25:19.591Z,3.20
2018-12-30T19:30:16.060Z,3.20
2018-12-30T19:32:44.523Z,3.30
2018-12-30T19:35:12.944Z,3.30
2018-12-30T19:37:41.472Z,3.30
2018-12-30T19:40:11.020Z,3.30
2018-12-30T19:42:39.427Z,3.30
2018-12-30T19:47:36.171Z,3.30
2018-12-30T19:50:06.116Z,3.30
2018-12-30T19:52:34.509Z,3.30
2018-12-30T19:55:02.912Z,3.30
2018-12-30T19:57:31.309Z,3.30
2018-12-30T19:59:59.716Z,3.30
2018-12-30T20:02:28.112Z,3.30
2018-12-30T20:04:56.516Z,3.30
2018-12-30T20:07:24.924Z,3.30
2018-12-30T20:12:21.419Z,3.30
2018-12-30T20:17:17.901Z,3.30
2018-12-30T20:22:14.368Z,3.30
2018-12-30T20:27:10.861Z,3.30
2018-12-30T20:29:39.308Z,3.40
2018-12-30T20:32:07.720Z,3.40
2018-12-30T20:34:36.132Z,3.40
2018-12-30T20:37:04.608Z,3.50
2018-12-30T20:39:33.013Z,3.50
2018-12-30T20:42:01.456Z,3.50
2018-12-30T20:46:57.944Z,3.30
2018-12-30T20:49:26.399Z,3.30
2018-12-30T20:51:55.085Z,3.30
2018-12-30T20:56:51.669Z,3.30
2018-12-30T20:59:20.071Z,3.30
2018-12-30T21:06:44.712Z,3.30
2018-12-30T21:09:13.108Z,3.30
2018-12-30T21:11:41.512Z,3.30
2018-12-30T21:16:37.994Z,3.30
2018-12-30T21:19:06.404Z,3.30
2018-12-30T21:21:34.817Z,3.30
2018-12-30T21:24:03.213Z,3.30
2018-12-30T21:26:31.616Z,3.40
2018-12-30T21:29:00.015Z,3.30
2018-12-30T21:31:28.425Z,3.30
2018-12-30T21:33:57.800Z,3.30
2018-12-30T21:36:26.217Z,3.40
2018-12-30T21:41:22.707Z,3.30
2018-12-30T21:46:19.208Z,3.40
2018-12-30T21:48:47.596Z,3.30
2018-12-30T21:51:15.992Z,3.40
2018-12-30T21:53:44.392Z,3.40
2018-12-30T21:56:12.795Z,3.40
2018-12-30T21:58:41.196Z,3.40
2018-12-30T22:01:09.588Z,3.40
2018-12-30T22:03:37.993Z,3.40
2018-12-30T22:06:06.387Z,3.40
2018-12-30T22:08:34.808Z,3.40
2018-12-30T22:11:03.272Z,3.40
2018-12-30T22:13:31.751Z,3.40
2018-12-30T22:16:00.149Z,3.40
2018-12-30T22:18:28.643Z,3.40
2018-12-30T22:23:25.217Z,3.40
2018-12-30T22:25:53.617Z,3.40
2018-12-30T22:28:22.025Z,3.40
2018-12-30T22:30:50.587Z,3.40
2018-12-30T22:33:19.001Z,3.40
2018-12-30T22:35:47.424Z,3.40
2018-12-30T22:38:16.057Z,3.40
2018-12-30T22:43:12.532Z,3.40
2018-12-30T22:45:40.946Z,3.40
2018-12-30T22:50:37.412Z,3.30
2018-12-30T22:53:05.808Z,3.40
2018-12-30T22:55:34.225Z,3.40
2018-12-30T22:58:02.640Z,3.40
2018-12-30T23:00:39.110Z,3.30
2018-12-30T23:05:35.953Z,3.30
2018-12-30T23:08:04.357Z,3.30
2018-12-30T23:10:32.772Z,3.30
2018-12-30T23:13:01.165Z,3.30
2018-12-30T23:15:29.572Z,3.30
2018-12-30T23:17:57.969Z,3.40
2018-12-30T23:20:26.376Z,3.40
2018-12-30T23:22:54.786Z,3.40
2018-12-30T23:25:23.187Z,3.40
2018-12-30T23:27:51.588Z,3.40
2018-12-30T23:30:20.005Z,3.40
2018-12-30T23:32:48.396Z,3.30
2018-12-30T23:35:16.802Z,3.30
2018-12-30T23:37:45.201Z,3.30
2018-12-30T23:40:13.610Z,3.30
2018-12-30T23:42:42.008Z,3.40
2018-12-30T23:45:10.420Z,3.30
2018-12-30T23:47:38.808Z,3.30
2018-12-30T23:50:07.224Z,3.30
2018-12-30T23:52:35.621Z,3.30
2018-12-30T23:55:04.464Z,3.30
2018-12-30T23:57:32.869Z,3.30
